createdAt,value
2019-02-28T00:00:40.697Z,13.03
2019-02-28T00:03:08.023Z,12.00
2019-02-28T00:05:38.004Z,13.57
2019-02-28T00:08:11.242Z,11.23
2019-02-28T00:10:38.869Z,11.07
2019-02-28T00:13:06.578Z,11.73
2019-02-28T00:15:34.711Z,15.47
2019-02-28T00:18:03.694Z,13.47
2019-02-28T00:20:31.960Z,13.73
2019-02-28T00:23:00.448Z,9.17
2019-02-28T00:25:28.024Z,11.33
2019-02-28T00:27:56.746Z,11.33
2019-02-28T00:30:24.357Z,10.57
2019-02-28T00:32:51.941Z,11.80
2019-02-28T00:35:19.520Z,10.87
2019-02-28T00:37:47.234Z,8.57
2019-02-28T00:40:15.027Z,11.03
2019-02-28T00:42:42.570Z,10.80
2019-02-28T00:45:10.436Z,10.83
2019-02-28T00:47:38.146Z,9.93
2019-02-28T00:50:05.886Z,9.37
2019-02-28T00:52:35.482Z,8.37
2019-02-28T00:55:03.159Z,8.80
2019-02-28T00:57:30.810Z,9.40
2019-02-28T00:59:58.370Z,9.23
2019-02-28T01:02:26.041Z,9.23
2019-02-28T01:04:53.691Z,8.97
2019-02-28T01:07:21.332Z,9.97
2019-02-28T01:09:48.995Z,8.57
2019-02-28T01:12:19.177Z,9.13
2019-02-28T01:14:46.174Z,8.73
2019-02-28T01:17:13.748Z,8.80
2019-02-28T01:19:42.307Z,8.97
2019-02-28T01:22:10.084Z,9.00
2019-02-28T01:24:39.823Z,11.90
2019-02-28T01:27:07.551Z,8.73
2019-02-28T01:29:35.720Z,7.57
2019-02-28T01:32:04.148Z,11.50
2019-02-28T01:34:32.278Z,9.27
2019-02-28T01:37:00.531Z,8.37
2019-02-28T01:39:29.937Z,10.47
2019-02-28T01:41:57.847Z,9.73
2019-02-28T01:44:25.606Z,10.07
2019-02-28T01:46:53.359Z,10.17
2019-02-28T01:49:21.095Z,12.10
2019-02-28T01:51:48.670Z,9.90
2019-02-28T01:54:16.341Z,10.20
2019-02-28T01:56:44.020Z,9.37
2019-02-28T01:59:11.684Z,10.83
2019-02-28T02:01:39.377Z,14.40
2019-02-28T02:04:09.196Z,16.53
2019-02-28T02:06:36.950Z,12.30
2019-02-28T02:09:08.047Z,15.23
2019-02-28T02:11:35.149Z,13.70
2019-02-28T02:14:02.927Z,42.27
2019-02-28T02:16:30.676Z,17.87
2019-02-28T02:18:58.431Z,29.50
2019-02-28T02:21:26.121Z,19.57
2019-02-28T02:23:53.893Z,21.37
2019-02-28T02:26:21.536Z,17.87
2019-02-28T02:28:49.215Z,15.30
2019-02-28T02:31:16.907Z,15.40
2019-02-28T02:33:51.172Z,16.10
2019-02-28T02:36:16.352Z,15.07
2019-02-28T02:38:43.572Z,13.53
2019-02-28T02:41:11.294Z,15.80
2019-02-28T02:43:39.094Z,15.13
2019-02-28T02:46:06.788Z,16.40
2019-02-28T02:48:38.597Z,13.53
2019-02-28T02:51:10.690Z,13.33
2019-02-28T02:53:33.416Z,13.83
2019-02-28T02:56:04.091Z,14.80
2019-02-28T02:58:30.901Z,16.77
2019-02-28T03:00:58.606Z,11.63
2019-02-28T03:03:26.263Z,12.97
2019-02-28T03:05:53.967Z,12.30
2019-02-28T03:08:21.598Z,13.27
2019-02-28T03:10:51.951Z,14.03
2019-02-28T03:13:19.031Z,12.40
2019-02-28T03:15:46.757Z,13.73
2019-02-28T03:18:14.992Z,11.93
2019-02-28T03:20:42.647Z,11.57
2019-02-28T03:23:10.231Z,17.40
2019-02-28T03:25:38.000Z,14.60
2019-02-28T03:28:05.736Z,13.03
2019-02-28T03:30:33.889Z,13.40
2019-02-28T03:33:01.928Z,11.80
2019-02-28T03:35:40.601Z,13.73
2019-02-28T03:37:58.922Z,13.40
2019-02-28T03:40:26.778Z,13.47
2019-02-28T03:42:54.455Z,13.40
2019-02-28T03:45:22.063Z,14.93
2019-02-28T03:47:49.868Z,15.07
2019-02-28T03:50:21.923Z,14.57
2019-02-28T03:52:46.898Z,13.27
2019-02-28T03:55:14.667Z,14.17
2019-02-28T03:57:42.437Z,13.20
2019-02-28T04:00:13.714Z,13.43
2019-02-28T04:02:41.401Z,11.13
2019-02-28T04:05:09.765Z,11.77
2019-02-28T04:07:37.496Z,13.17
2019-02-28T04:10:05.757Z,11.03
2019-02-28T04:12:33.486Z,12.07
2019-02-28T04:15:01.143Z,12.90
2019-02-28T04:17:30.458Z,13.87
2019-02-28T04:19:59.944Z,11.23
2019-02-28T04:22:27.810Z,11.77
2019-02-28T04:24:55.491Z,10.50
2019-02-28T04:27:23.279Z,12.47
2019-02-28T04:29:51.283Z,25.77
2019-02-28T04:32:18.918Z,16.23
2019-02-28T04:34:49.818Z,12.20
2019-02-28T04:37:17.531Z,13.37
2019-02-28T04:39:45.279Z,17.43
2019-02-28T04:42:12.990Z,9.20
2019-02-28T04:44:40.902Z,13.53
2019-02-28T04:47:08.582Z,11.27
2019-02-28T04:49:36.197Z,9.63
2019-02-28T04:52:03.770Z,11.67
2019-02-28T04:54:31.474Z,11.60
2019-02-28T04:56:59.105Z,13.83
2019-02-28T04:59:26.797Z,14.70
2019-02-28T05:01:54.668Z,7.50
2019-02-28T05:04:22.592Z,12.03
2019-02-28T05:06:52.184Z,5.40
2019-02-28T05:09:19.858Z,9.33
2019-02-28T05:11:47.729Z,11.47
2019-02-28T05:14:15.382Z,9.83
2019-02-28T05:16:47.387Z,12.93
2019-02-28T05:19:13.032Z,9.70
2019-02-28T05:21:40.644Z,10.03
2019-02-28T05:24:08.686Z,8.10
2019-02-28T05:26:38.458Z,7.77
2019-02-28T05:29:06.208Z,10.00
2019-02-28T05:31:33.807Z,6.83
2019-02-28T05:34:01.731Z,7.30
2019-02-28T05:36:29.780Z,6.20
2019-02-28T05:38:57.618Z,10.37
2019-02-28T05:41:25.427Z,8.20
2019-02-28T05:43:53.219Z,10.33
2019-02-28T05:46:23.640Z,11.60
2019-02-28T05:48:50.602Z,9.97
2019-02-28T05:51:18.329Z,9.77
2019-02-28T05:53:46.195Z,9.33
2019-02-28T05:56:13.998Z,7.83
2019-02-28T05:58:41.773Z,10.60
2019-02-28T06:01:11.949Z,10.90
2019-02-28T06:03:39.654Z,12.90
2019-02-28T06:06:17.243Z,10.17
2019-02-28T06:08:48.085Z,12.37
2019-02-28T06:11:16.631Z,12.93
2019-02-28T06:13:44.639Z,16.03
2019-02-28T06:16:12.556Z,15.83
2019-02-28T06:18:40.196Z,15.83
2019-02-28T06:21:07.813Z,13.37
2019-02-28T06:23:37.164Z,15.13
2019-02-28T06:26:04.720Z,10.57
2019-02-28T06:28:32.277Z,8.00
2019-02-28T06:31:00.460Z,9.30
2019-02-28T06:33:30.677Z,14.57
2019-02-28T06:35:57.809Z,11.43
2019-02-28T06:38:25.345Z,9.50
2019-02-28T06:40:52.985Z,10.30
2019-02-28T06:43:20.659Z,11.57
2019-02-28T06:45:48.281Z,12.57
2019-02-28T06:48:16.068Z,20.50
2019-02-28T06:50:49.905Z,14.57
2019-02-28T06:53:17.555Z,12.87
2019-02-28T06:55:48.204Z,15.80
2019-02-28T06:58:16.870Z,13.30
2019-02-28T07:00:47.322Z,15.97
2019-02-28T07:03:13.944Z,14.57
2019-02-28T07:05:42.042Z,18.10
2019-02-28T07:08:09.794Z,19.10
2019-02-28T07:10:37.504Z,15.70
2019-02-28T07:13:05.651Z,17.53
2019-02-28T07:15:33.327Z,20.97
2019-02-28T07:18:00.892Z,19.57
2019-02-28T07:20:28.572Z,20.33
2019-02-28T07:22:56.243Z,23.20
2019-02-28T07:25:23.808Z,18.00
2019-02-28T07:27:51.482Z,20.17
2019-02-28T07:30:19.555Z,15.50
2019-02-28T07:32:47.356Z,21.57
2019-02-28T07:35:16.183Z,18.10
2019-02-28T07:37:43.939Z,14.90
2019-02-28T07:40:15.545Z,16.57
2019-02-28T07:42:41.925Z,16.97
2019-02-28T07:45:12.095Z,20.13
2019-02-28T07:47:39.525Z,17.87
2019-02-28T07:50:07.681Z,19.03
2019-02-28T07:52:36.882Z,18.43
2019-02-28T07:55:05.707Z,16.93
2019-02-28T07:57:33.489Z,14.33
2019-02-28T08:00:01.166Z,25.40
2019-02-28T08:02:28.734Z,28.83
2019-02-28T08:04:56.622Z,19.80
2019-02-28T08:07:24.286Z,22.80
2019-02-28T08:09:51.884Z,19.27
2019-02-28T08:12:19.512Z,17.63
2019-02-28T08:14:47.893Z,18.33
2019-02-28T08:17:15.508Z,19.10
2019-02-28T08:19:43.238Z,22.23
2019-02-28T08:22:10.861Z,16.50
2019-02-28T08:24:38.408Z,15.93
2019-02-28T08:27:06.066Z,18.53
2019-02-28T08:29:33.715Z,19.80
2019-02-28T08:32:06.585Z,17.33
2019-02-28T08:34:31.085Z,17.17
2019-02-28T08:36:58.885Z,19.57
2019-02-28T08:39:26.438Z,18.10
2019-02-28T08:41:54.039Z,17.67
2019-02-28T08:44:23.813Z,18.37
2019-02-28T08:46:51.039Z,21.83
2019-02-28T08:49:18.650Z,20.63
2019-02-28T08:51:47.063Z,18.87
2019-02-28T08:54:14.695Z,17.67
2019-02-28T08:56:42.423Z,21.13
2019-02-28T08:59:12.071Z,14.40
2019-02-28T09:01:41.271Z,12.77
2019-02-28T09:04:09.111Z,15.80
2019-02-28T09:06:37.890Z,19.60
2019-02-28T09:09:11.042Z,17.57
2019-02-28T09:11:38.719Z,14.93
2019-02-28T09:14:10.408Z,15.43
2019-02-28T09:16:39.744Z,19.90
2019-02-28T09:19:07.570Z,17.20
2019-02-28T09:21:35.178Z,14.97
2019-02-28T09:24:02.760Z,16.20
2019-02-28T09:26:31.401Z,19.03
2019-02-28T09:28:59.688Z,15.23
2019-02-28T09:31:27.347Z,15.47
2019-02-28T09:33:55.402Z,15.13
2019-02-28T09:36:25.341Z,12.77
2019-02-28T09:38:57.033Z,15.50
2019-02-28T09:41:22.598Z,11.20
2019-02-28T09:43:51.521Z,15.53
2019-02-28T09:50:33.215Z,13.93
2019-02-28T10:09:44.154Z,12.53
2019-02-28T10:26:00.363Z,12.47
2019-02-28T10:28:44.302Z,9.57
2019-02-28T10:31:12.523Z,11.60
2019-02-28T10:37:30.324Z,14.13
2019-02-28T10:40:01.247Z,13.47
2019-02-28T10:42:30.283Z,14.87
2019-02-28T10:44:57.936Z,9.70
2019-02-28T10:47:29.651Z,11.93
2019-02-28T10:50:00.550Z,13.40
2019-02-28T10:52:31.365Z,7.73
2019-02-28T10:55:02.707Z,10.43
2019-02-28T10:57:30.603Z,11.73
2019-02-28T10:59:59.165Z,12.77
2019-02-28T11:02:27.163Z,9.60
2019-02-28T11:04:54.783Z,7.47
2019-02-28T11:07:22.379Z,8.03
2019-02-28T11:09:55.546Z,6.00
2019-02-28T11:12:23.864Z,8.43
2019-02-28T11:14:51.466Z,5.17
2019-02-28T11:17:19.110Z,4.57
2019-02-28T11:19:48.491Z,6.73
2019-02-28T11:22:16.855Z,4.87
2019-02-28T11:24:46.250Z,4.27
2019-02-28T11:27:19.566Z,3.77
2019-02-28T11:29:46.176Z,3.97
2019-02-28T11:32:13.909Z,4.23
2019-02-28T11:34:41.493Z,3.37
2019-02-28T11:37:09.907Z,4.87
2019-02-28T11:39:37.583Z,6.43
2019-02-28T11:42:05.196Z,7.80
2019-02-28T11:44:33.064Z,4.97
2019-02-28T11:47:00.939Z,5.50
2019-02-28T11:49:29.441Z,5.07
2019-02-28T11:51:57.447Z,8.10
2019-02-28T11:54:25.285Z,8.10
2019-02-28T11:56:52.982Z,7.10
2019-02-28T11:59:24.245Z,6.67
2019-02-28T12:01:51.485Z,5.70
2019-02-28T12:04:24.637Z,6.00
2019-02-28T12:06:52.494Z,4.37
2019-02-28T12:09:20.147Z,4.27
2019-02-28T12:11:47.897Z,4.63
2019-02-28T12:14:15.820Z,4.97
2019-02-28T12:16:43.663Z,4.70
2019-02-28T12:19:12.522Z,4.37
2019-02-28T12:21:41.717Z,3.50
2019-02-28T12:24:09.354Z,5.83
2019-02-28T12:26:36.966Z,4.03
2019-02-28T12:29:04.563Z,5.53
2019-02-28T12:31:35.786Z,4.63
2019-02-28T12:34:01.780Z,7.07
2019-02-28T12:36:29.770Z,7.50
2019-02-28T12:38:59.381Z,6.83
2019-02-28T12:41:26.863Z,5.00
2019-02-28T12:43:54.469Z,7.10
2019-02-28T12:46:23.010Z,6.13
2019-02-28T12:48:53.658Z,5.37
2019-02-28T12:51:21.490Z,4.40
2019-02-28T12:54:19.175Z,5.93
2019-02-28T12:56:50.217Z,4.57
2019-02-28T12:59:17.866Z,4.90
2019-02-28T13:01:45.528Z,3.77
2019-02-28T13:04:13.205Z,6.03
2019-02-28T13:06:45.047Z,7.40
2019-02-28T13:09:13.606Z,2.27
2019-02-28T13:11:42.225Z,2.43
2019-02-28T13:14:10.150Z,3.63
2019-02-28T13:16:38.013Z,4.10
2019-02-28T13:19:05.998Z,4.57
2019-02-28T13:21:51.624Z,5.30
2019-02-28T13:24:19.759Z,4.23
2019-02-28T13:26:52.409Z,1.97
2019-02-28T13:29:22.270Z,1.30
2019-02-28T13:31:50.532Z,1.97
2019-02-28T13:34:18.366Z,3.10
2019-02-28T13:36:46.763Z,2.23
2019-02-28T13:39:14.588Z,2.07
2019-02-28T13:41:42.549Z,4.20
2019-02-28T13:44:10.743Z,2.63
2019-02-28T13:46:38.453Z,2.77
2019-02-28T13:49:08.593Z,3.57
2019-02-28T13:51:40.400Z,4.43
2019-02-28T13:54:09.867Z,4.87
2019-02-28T13:56:37.882Z,2.77
2019-02-28T13:59:05.714Z,4.93
2019-02-28T14:01:34.800Z,3.73
2019-02-28T14:04:02.452Z,2.63
2019-02-28T14:06:30.310Z,1.83
2019-02-28T14:12:28.716Z,3.27
2019-02-28T14:14:59.024Z,3.87
2019-02-28T14:17:26.798Z,2.77
2019-02-28T14:19:57.544Z,3.53
2019-02-28T14:22:25.355Z,3.17
2019-02-28T14:24:53.147Z,1.43
2019-02-28T14:27:21.559Z,4.63
2019-02-28T14:29:50.326Z,4.07
2019-02-28T14:32:18.201Z,1.77
2019-02-28T14:34:46.092Z,2.80
2019-02-28T14:37:16.859Z,1.23
2019-02-28T14:39:43.588Z,2.17
2019-02-28T14:45:44.298Z,3.10
2019-02-28T14:48:14.888Z,1.67
2019-02-28T14:50:43.092Z,1.90
2019-02-28T14:56:55.125Z,2.00
2019-02-28T14:59:22.724Z,1.40
2019-02-28T15:01:53.190Z,3.70
2019-02-28T15:04:19.874Z,1.87
2019-02-28T15:06:47.606Z,2.87
2019-02-28T15:09:16.605Z,2.80
2019-02-28T15:11:47.085Z,1.23
2019-02-28T15:14:15.826Z,2.33
2019-02-28T15:16:43.464Z,1.73
2019-02-28T15:19:11.083Z,3.73
2019-02-28T15:21:42.225Z,2.03
2019-02-28T15:24:09.788Z,1.90
2019-02-28T15:26:37.380Z,2.57
2019-02-28T15:29:04.922Z,1.60
2019-02-28T15:31:32.490Z,1.67
2019-02-28T15:34:02.303Z,1.90
2019-02-28T15:36:29.492Z,1.53
2019-02-28T15:38:57.148Z,1.47
2019-02-28T15:41:24.783Z,2.70
2019-02-28T15:43:53.725Z,2.60
2019-02-28T15:46:21.784Z,3.47
2019-02-28T15:48:49.367Z,1.60
2019-02-28T15:51:16.899Z,2.57
2019-02-28T15:53:46.893Z,2.43
2019-02-28T15:56:19.624Z,2.40
2019-02-28T15:58:43.455Z,2.03
2019-02-28T16:01:11.011Z,2.33
2019-02-28T16:03:38.916Z,1.87
2019-02-28T16:06:06.611Z,2.97
2019-02-28T16:08:34.271Z,4.10
2019-02-28T16:11:03.283Z,2.73
2019-02-28T16:13:31.320Z,2.40
2019-02-28T16:15:59.008Z,3.30
2019-02-28T16:18:26.550Z,1.97
2019-02-28T16:20:54.190Z,3.40
2019-02-28T16:23:23.613Z,2.23
2019-02-28T16:25:51.129Z,2.23
2019-02-28T16:28:18.831Z,2.77
2019-02-28T16:30:46.389Z,2.80
2019-02-28T16:33:14.004Z,2.20
2019-02-28T16:35:41.655Z,3.90
2019-02-28T16:38:09.856Z,1.60
2019-02-28T16:40:38.596Z,3.00
2019-02-28T16:43:06.169Z,4.40
2019-02-28T16:45:37.512Z,2.73
2019-02-28T16:48:06.829Z,4.23
2019-02-28T16:50:34.700Z,3.90
2019-02-28T16:53:02.424Z,4.30
2019-02-28T16:55:31.060Z,4.17
2019-02-28T16:57:59.361Z,6.00
2019-02-28T17:00:27.412Z,4.13
2019-02-28T17:02:54.999Z,3.57
2019-02-28T17:05:26.610Z,4.17
2019-02-28T17:07:52.259Z,3.90
2019-02-28T17:10:23.192Z,3.33
2019-02-28T17:13:12.493Z,3.50
2019-02-28T17:16:02.393Z,5.67
2019-02-28T17:18:31.042Z,2.90
2019-02-28T17:20:58.676Z,3.47
2019-02-28T17:23:26.295Z,4.00
2019-02-28T17:25:56.543Z,3.57
2019-02-28T23:15:50.931Z,9.40
2019-02-28T23:18:18.536Z,8.00
2019-02-28T23:20:46.115Z,7.70
2019-02-28T23:23:13.645Z,8.47
2019-02-28T23:25:41.240Z,7.87
2019-02-28T23:28:11.016Z,7.80
2019-02-28T23:31:18.801Z,7.93
2019-02-28T23:33:46.392Z,10.33
2019-02-28T23:36:14.038Z,7.30
2019-02-28T23:38:41.639Z,7.10
2019-02-28T23:41:09.174Z,8.13
2019-02-28T23:43:36.751Z,7.30
2019-02-28T23:46:04.308Z,9.27
2019-02-28T23:48:31.855Z,7.30
2019-02-28T23:50:59.369Z,9.53
2019-02-28T23:53:27.028Z,7.83
2019-02-28T23:55:54.771Z,7.23
2019-02-28T23:58:22.567Z,7.57
